Time;durP1;ratioP1;P1;durP2;ratioP2;P2;SDS_P1;SDS_P2;PMS_P1;PMS_P2;Temp;Humidity;BMP_temperature;BMP_pressure;BME280_temperature;BME280_humidity;BME280_pressure;Samples;Min_cycle;Max_cycle;Signal;HPM_P1;HPM_P2
2022/05/26 00:01:39;;;;;;;0.10;0.10;;;;;;;;;;5026766;28;20573;-86
2022/05/26 00:04:06;;;;;;;0.08;0.08;;;;;;;;;;5029903;28;20028;-86
2022/05/26 00:06:32;;;;;;;0.00;0.00;;;;;;;;;;5024762;28;20471;-86
2022/05/26 00:08:59;;;;;;;0.10;0.10;;;;;;;;;;5032613;28;20045;-86
2022/05/26 00:11:28;;;;;;;;;;;;;;;;;;5032135;28;20036;-91
2022/05/26 00:13:54;;;;;;;0.00;0.00;;;;;;;;;;5037181;28;20015;-88
2022/05/26 00:16:20;;;;;;;0.10;0.10;;;;;;;;;;5038041;28;20619;-88
2022/05/26 00:18:47;;;;;;;0.10;0.10;;;;;;;;;;5028198;28;20085;-89
2022/05/26 00:21:13;;;;;;;0.10;0.10;;;;;;;;;;5039178;28;20152;-88
2022/05/26 00:23:40;;;;;;;0.10;0.10;;;;;;;;;;5026246;28;20124;-83
2022/05/26 00:26:06;;;;;;;0.10;0.10;;;;;;;;;;5037300;28;20025;-84
2022/05/26 00:28:32;;;;;;;0.07;0.07;;;;;;;;;;5025142;28;20292;-84
2022/05/26 00:30:58;;;;;;;0.00;0.00;;;;;;;;;;5025340;28;20037;-84
2022/05/26 00:33:26;;;;;;;0.60;0.60;;;;;;;;;;5033329;28;20110;-84
2022/05/26 00:35:52;;;;;;;0.10;0.10;;;;;;;;;;5034420;28;20116;-83
2022/05/26 00:38:18;;;;;;;0.17;0.10;;;;;;;;;;5032167;28;20502;-83
2022/05/26 00:40:45;;;;;;;0.00;0.00;;;;;;;;;;5028986;28;20049;-83
2022/05/26 00:43:11;;;;;;;;;;;;;;;;;;5037734;28;20040;-83
2022/05/26 00:45:41;;;;;;;0.00;0.00;;;;;;;;;;5026915;28;19924;-83
2022/05/26 00:48:11;;;;;;;0.00;0.00;;;;;;;;;;5026157;28;20090;-83
2022/05/26 00:50:42;;;;;;;0.40;0.40;;;;;;;;;;5025809;28;20060;-83
2022/05/26 00:53:14;;;;;;;0.03;0.03;;;;;;;;;;5031538;28;20048;-85
2022/05/26 00:55:44;;;;;;;0.10;0.10;;;;;;;;;;5028772;28;20453;-84
2022/05/26 00:58:14;;;;;;;0.45;0.45;;;;;;;;;;5023787;28;20079;-85
2022/05/26 01:00:40;;;;;;;0.10;0.10;;;;;;;;;;5032572;28;20029;-85
2022/05/26 01:03:17;;;;;;;14.47;0.87;;;;;;;;;;5027293;28;20564;-85
2022/05/26 01:05:52;;;;;;;0.00;0.00;;;;;;;;;;5037028;28;20279;-85
2022/05/26 01:08:30;;;;;;;0.10;0.10;;;;;;;;;;5028900;28;20040;-85
2022/05/26 01:10:56;;;;;;;0.10;0.10;;;;;;;;;;5035299;28;20041;-85
2022/05/26 01:13:22;;;;;;;0.10;0.10;;;;;;;;;;5035510;28;20500;-84
2022/05/26 01:16:09;;;;;;;0.00;0.00;;;;;;;;;;5037016;28;20119;-85
2022/05/26 01:18:42;;;;;;;0.00;0.00;;;;;;;;;;5040202;28;20087;-85
2022/05/26 01:21:37;;;;;;;0.17;0.17;;;;;;;;;;5032536;28;20041;-83
2022/05/26 01:24:33;;;;;;;0.10;0.10;;;;;;;;;;5034541;28;20033;-84
2022/05/26 01:26:59;;;;;;;0.10;0.10;;;;;;;;;;5021997;28;20041;-83
2022/05/26 01:29:37;;;;;;;0.30;0.30;;;;;;;;;;5021452;28;20052;-83
2022/05/26 01:32:15;;;;;;;0.05;0.05;;;;;;;;;;5005379;28;20041;-85
2022/05/26 01:34:52;;;;;;;0.10;0.10;;;;;;;;;;5008116;28;20184;-85
2022/05/26 01:37:36;;;;;;;0.30;0.30;;;;;;;;;;5017936;28;20050;-83
2022/05/26 01:40:13;;;;;;;0.10;0.10;;;;;;;;;;5017924;28;20029;-83
2022/05/26 01:43:00;;;;;;;0.10;0.10;;;;;;;;;;5021393;28;20041;-83
2022/05/26 01:45:46;;;;;;;4.10;1.67;;;;;;;;;;5021119;28;20059;-83
2022/05/26 01:48:31;;;;;;;3.63;0.70;;;;;;;;;;4950595;28;20035;-83
2022/05/26 01:51:23;;;;;;;0.03;0.03;;;;;;;;;;4961406;28;20150;-83
2022/05/26 01:54:07;;;;;;;0.10;0.10;;;;;;;;;;4925348;29;20055;-83
2022/05/26 01:56:37;;;;;;;0.10;0.10;;;;;;;;;;4911417;29;20078;-82
2022/05/26 01:59:12;;;;;;;0.10;0.10;;;;;;;;;;4924375;29;20040;-84
2022/05/26 02:01:41;;;;;;;0.00;0.00;;;;;;;;;;4920633;29;20035;-81
2022/05/26 02:04:11;;;;;;;0.10;0.10;;;;;;;;;;4928922;29;20059;-81
2022/05/26 02:06:40;;;;;;;0.10;0.10;;;;;;;;;;4939314;28;20047;-81
2022/05/26 02:09:08;;;;;;;0.10;0.10;;;;;;;;;;4933579;28;20077;-80
2022/05/26 02:11:37;;;;;;;0.00;0.00;;;;;;;;;;4935577;28;20051;-80
2022/05/26 02:14:07;;;;;;;0.00;0.00;;;;;;;;;;4933080;28;20675;-80
2022/05/26 02:16:37;;;;;;;0.10;0.10;;;;;;;;;;4932501;28;20043;-81
2022/05/26 02:19:12;;;;;;;0.00;0.00;;;;;;;;;;4927294;28;20042;-80
2022/05/26 02:21:47;;;;;;;0.10;0.10;;;;;;;;;;4936744;28;20569;-81
2022/05/26 02:24:33;;;;;;;0.00;0.00;;;;;;;;;;4934700;28;20113;-82
2022/05/26 02:26:59;;;;;;;0.10;0.10;;;;;;;;;;4994230;28;20046;-81
2022/05/26 02:32:11;;;;;;;0.10;0.10;;;;;;;;;;5035327;28;20040;-80
2022/05/26 02:34:37;;;;;;;1.35;0.85;;;;;;;;;;5035385;28;20105;-80
2022/05/26 02:37:04;;;;;;;0.00;0.00;;;;;;;;;;5037873;28;20113;-80
2022/05/26 02:39:30;;;;;;;0.10;0.10;;;;;;;;;;5031978;28;20507;-80
2022/05/26 02:41:57;;;;;;;0.10;0.10;;;;;;;;;;5033792;28;20043;-79
2022/05/26 02:44:25;;;;;;;0.15;0.15;;;;;;;;;;5030646;28;20060;-79
2022/05/26 02:47:07;;;;;;;0.17;0.15;;;;;;;;;;5030742;28;20029;-80
2022/05/26 02:49:37;;;;;;;0.00;0.00;;;;;;;;;;5033490;28;20043;-78
2022/05/26 02:52:22;;;;;;;0.47;0.20;;;;;;;;;;5024110;28;20022;-79
2022/05/26 02:55:03;;;;;;;0.38;0.32;;;;;;;;;;5037286;28;20029;-80
2022/05/26 02:57:50;;;;;;;0.10;0.10;;;;;;;;;;5037241;28;20079;-82
2022/05/26 03:00:23;;;;;;;2.90;0.85;;;;;;;;;;5032011;28;20040;-81
2022/05/26 03:02:55;;;;;;;0.10;0.10;;;;;;;;;;5034092;28;20108;-81
2022/05/26 03:05:21;;;;;;;0.00;0.00;;;;;;;;;;5030389;28;20033;-81
2022/05/26 03:07:49;;;;;;;0.03;0.03;;;;;;;;;;5039487;28;20041;-82
2022/05/26 03:10:16;;;;;;;0.05;0.05;;;;;;;;;;5032468;28;20042;-82
2022/05/26 03:12:43;;;;;;;0.00;0.00;;;;;;;;;;5032426;28;20037;-82
2022/05/26 03:15:09;;;;;;;0.03;0.03;;;;;;;;;;5026329;28;20037;-82
2022/05/26 03:17:36;;;;;;;0.05;0.05;;;;;;;;;;5036241;28;20028;-82
2022/05/26 03:20:02;;;;;;;0.00;0.00;;;;;;;;;;5038103;28;20041;-81
2022/05/26 03:22:29;;;;;;;0.30;0.30;;;;;;;;;;5032696;28;20049;-82
2022/05/26 03:24:55;;;;;;;0.10;0.10;;;;;;;;;;5024428;28;20029;-82
2022/05/26 03:27:21;;;;;;;0.10;0.10;;;;;;;;;;5029255;28;20082;-82
2022/05/26 03:29:47;;;;;;;0.08;0.08;;;;;;;;;;5026596;28;20067;-82
2022/05/26 03:32:13;;;;;;;0.20;0.08;;;;;;;;;;5036316;28;20082;-82
2022/05/26 03:42:54;;;;;;;0.10;0.10;;;;;;;;;;5028581;28;20100;-82
2022/05/26 03:45:22;;;;;;;0.10;0.10;;;;;;;;;;5028629;28;20082;-82
2022/05/26 03:47:49;;;;;;;0.10;0.10;;;;;;;;;;5034550;28;20034;-82
2022/05/26 03:50:15;;;;;;;0.00;0.00;;;;;;;;;;5026415;28;20112;-82
2022/05/26 03:52:41;;;;;;;0.00;0.00;;;;;;;;;;5029633;28;20044;-81
2022/05/26 03:55:07;;;;;;;0.00;0.00;;;;;;;;;;5037967;28;20029;-82
2022/05/26 03:57:33;;;;;;;0.10;0.10;;;;;;;;;;5035157;28;20048;-81
2022/05/26 03:59:59;;;;;;;6.40;0.43;;;;;;;;;;5032215;28;20040;-80
2022/05/26 04:02:26;;;;;;;0.90;0.37;;;;;;;;;;5028938;28;20603;-79
2022/05/26 04:04:53;;;;;;;0.13;0.13;;;;;;;;;;5034797;28;20037;-79
2022/05/26 04:07:19;;;;;;;0.25;0.25;;;;;;;;;;5036251;28;20033;-78
2022/05/26 04:09:45;;;;;;;0.10;0.10;;;;;;;;;;5034764;28;20098;-79
2022/05/26 04:12:12;;;;;;;0.10;0.10;;;;;;;;;;5029891;28;20576;-79
2022/05/26 04:14:38;;;;;;;;;;;;;;;;;;5028408;28;20025;-79
2022/05/26 04:17:04;;;;;;;0.00;0.00;;;;;;;;;;5027105;28;19917;-79
2022/05/26 04:19:30;;;;;;;0.10;0.10;;;;;;;;;;5029002;28;20048;-79
2022/05/26 04:22:15;;;;;;;0.00;0.00;;;;;;;;;;5028637;28;20791;-79
2022/05/26 04:24:41;;;;;;;0.00;0.00;;;;;;;;;;5027663;28;20076;-80
2022/05/26 04:27:08;;;;;;;7.13;0.43;;;;;;;;;;5027778;28;20029;-79
2022/05/26 04:29:35;;;;;;;0.05;0.05;;;;;;;;;;5036677;28;20033;-79
2022/05/26 04:32:01;;;;;;;;;;;;;;;;;;5026857;28;20430;-79
2022/05/26 04:34:27;;;;;;;0.10;0.10;;;;;;;;;;5027499;28;19960;-79
2022/05/26 04:36:53;;;;;;;0.00;0.00;;;;;;;;;;5015275;28;20076;-79
2022/05/26 04:39:19;;;;;;;0.10;0.10;;;;;;;;;;5030649;28;20600;-78
2022/05/26 04:41:45;;;;;;;0.00;0.00;;;;;;;;;;5031950;28;20033;-78
2022/05/26 04:44:16;;;;;;;0.47;0.37;;;;;;;;;;5028810;28;20051;-78
2022/05/26 04:46:42;;;;;;;1.75;0.98;;;;;;;;;;5025786;28;20495;-82
2022/05/26 04:49:09;;;;;;;0.37;0.37;;;;;;;;;;5033436;28;20036;-80
2022/05/26 04:51:36;;;;;;;0.10;0.10;;;;;;;;;;5029714;28;20034;-81
2022/05/26 04:54:03;;;;;;;0.30;0.30;;;;;;;;;;5036593;28;20085;-78
2022/05/26 04:56:30;;;;;;;0.10;0.10;;;;;;;;;;5032788;28;20033;-79
2022/05/26 04:58:56;;;;;;;0.32;0.32;;;;;;;;;;5037003;28;20857;-80
2022/05/26 05:01:22;;;;;;;2.42;0.45;;;;;;;;;;5038980;28;20059;-84
2022/05/26 05:03:48;;;;;;;0.03;0.03;;;;;;;;;;5030411;28;20501;-84
2022/05/26 05:06:15;;;;;;;0.10;0.10;;;;;;;;;;5027509;28;20096;-82
2022/05/26 05:08:41;;;;;;;;;;;;;;;;;;5024357;28;20401;-82
2022/05/26 05:11:08;;;;;;;0.00;0.00;;;;;;;;;;5027238;28;20392;-82
2022/05/26 05:13:34;;;;;;;0.00;0.00;;;;;;;;;;5023704;28;20072;-87
2022/05/26 05:16:05;;;;;;;0.00;0.00;;;;;;;;;;5027314;28;20053;-85
2022/05/26 05:18:32;;;;;;;0.20;0.20;;;;;;;;;;5031086;28;20326;-86
2022/05/26 05:21:03;;;;;;;0.32;0.10;;;;;;;;;;5026737;28;20041;-88
2022/05/26 05:23:29;;;;;;;0.00;0.00;;;;;;;;;;5028564;28;20033;-86
2022/05/26 05:25:56;;;;;;;0.00;0.00;;;;;;;;;;5027579;28;20037;-87
2022/05/26 05:28:27;;;;;;;0.00;0.00;;;;;;;;;;5030377;28;20548;-85
2022/05/26 05:30:59;;;;;;;0.52;0.52;;;;;;;;;;5043002;28;20214;-82
2022/05/26 05:33:37;;;;;;;0.00;0.00;;;;;;;;;;5025188;28;20028;-84
2022/05/26 05:36:05;;;;;;;0.10;0.10;;;;;;;;;;5026864;28;20033;-83
2022/05/26 05:38:32;;;;;;;0.10;0.10;;;;;;;;;;5028048;28;20044;-85
2022/05/26 05:40:58;;;;;;;0.20;0.10;;;;;;;;;;5025677;28;20376;-86
2022/05/26 05:43:25;;;;;;;0.00;0.00;;;;;;;;;;5025079;28;20036;-86
2022/05/26 05:45:51;;;;;;;0.00;0.00;;;;;;;;;;5027988;28;20018;-89
2022/05/26 05:48:17;;;;;;;0.00;0.00;;;;;;;;;;5028142;28;20036;-79
2022/05/26 05:50:43;;;;;;;0.00;0.00;;;;;;;;;;5034230;28;20079;-81
2022/05/26 05:53:09;;;;;;;0.90;0.13;;;;;;;;;;5030569;28;20052;-81
2022/05/26 05:55:35;;;;;;;0.00;0.00;;;;;;;;;;5031657;28;20052;-81
2022/05/26 05:58:01;;;;;;;0.00;0.00;;;;;;;;;;5033254;28;20116;-79
2022/05/26 06:00:27;;;;;;;0.10;0.10;;;;;;;;;;5027097;28;20530;-79
2022/05/26 06:02:54;;;;;;;0.13;0.13;;;;;;;;;;5029380;28;20064;-79
2022/05/26 06:05:20;;;;;;;0.00;0.00;;;;;;;;;;5028125;28;20021;-78
2022/05/26 06:07:46;;;;;;;0.00;0.00;;;;;;;;;;5032281;28;20029;-84
2022/05/26 06:10:14;;;;;;;0.03;0.03;;;;;;;;;;5027853;28;20040;-83
2022/05/26 06:12:40;;;;;;;0.10;0.10;;;;;;;;;;5030388;28;20041;-84
2022/05/26 06:15:07;;;;;;;0.28;0.17;;;;;;;;;;5030515;28;20041;-84
2022/05/26 06:17:33;;;;;;;;;;;;;;;;;;5030796;28;20384;-83
2022/05/26 06:19:59;;;;;;;0.25;0.25;;;;;;;;;;5043076;28;19918;-83
2022/05/26 06:22:25;;;;;;;3.10;0.28;;;;;;;;;;5027984;28;20514;-84
2022/05/26 06:24:51;;;;;;;0.00;0.00;;;;;;;;;;5031158;28;20453;-84
2022/05/26 06:30:03;;;;;;;;;;;;;;;;;;5037211;28;20069;-84
2022/05/26 06:38:00;;;;;;;0.10;0.10;;;;;;;;;;5037340;28;20107;-84
2022/05/26 06:40:28;;;;;;;0.15;0.15;;;;;;;;;;5041293;28;20429;-84
2022/05/26 06:42:55;;;;;;;0.00;0.00;;;;;;;;;;5028384;28;20041;-84
2022/05/26 06:45:22;;;;;;;0.20;0.20;;;;;;;;;;5030404;28;20212;-83
2022/05/26 06:47:48;;;;;;;0.00;0.00;;;;;;;;;;5045328;28;20033;-83
2022/05/26 06:50:14;;;;;;;;;;;;;;;;;;5029972;28;20499;-83
2022/05/26 06:52:40;;;;;;;0.00;0.00;;;;;;;;;;5024845;28;19960;-84
2022/05/26 06:55:08;;;;;;;0.00;0.00;;;;;;;;;;5029120;28;20034;-83
2022/05/26 06:57:34;;;;;;;0.00;0.00;;;;;;;;;;5029829;28;20040;-84
2022/05/26 07:00:00;;;;;;;0.10;0.10;;;;;;;;;;5026358;28;20033;-83
2022/05/26 07:02:26;;;;;;;;;;;;;;;;;;5026452;28;20715;-83
2022/05/26 07:04:52;;;;;;;0.15;0.15;;;;;;;;;;5057957;28;19913;-84
2022/05/26 07:07:18;;;;;;;0.25;0.25;;;;;;;;;;5026373;28;20047;-84
2022/05/26 07:09:44;;;;;;;1.05;0.63;;;;;;;;;;5029585;28;20508;-84
2022/05/26 07:12:11;;;;;;;0.10;0.10;;;;;;;;;;5044318;28;20096;-84
2022/05/26 07:14:38;;;;;;;0.30;0.30;;;;;;;;;;5060902;28;20029;-84
2022/05/26 07:17:03;;;;;;;;;;;;;;;;;;5027687;28;20037;-84
2022/05/26 07:19:33;;;;;;;0.00;0.00;;;;;;;;;;5025422;28;19944;-84
2022/05/26 07:21:59;;;;;;;0.00;0.00;;;;;;;;;;5028342;28;20090;-83
2022/05/26 07:24:25;;;;;;;0.05;0.05;;;;;;;;;;5044620;28;20034;-85
2022/05/26 07:26:52;;;;;;;0.20;0.20;;;;;;;;;;5029261;28;20116;-85
2022/05/26 07:29:18;;;;;;;0.00;0.00;;;;;;;;;;5029857;28;20057;-85
2022/05/26 07:31:44;;;;;;;0.05;0.05;;;;;;;;;;5025161;28;20078;-85
2022/05/26 07:34:11;;;;;;;0.20;0.20;;;;;;;;;;5028366;28;20029;-85
2022/05/26 07:42:09;;;;;;;0.60;0.47;;;;;;;;;;5034570;28;20052;-85
2022/05/26 07:44:38;;;;;;;0.00;0.00;;;;;;;;;;5038394;28;20453;-85
2022/05/26 07:47:05;;;;;;;1.17;0.60;;;;;;;;;;5042152;28;20461;-84
2022/05/26 07:49:33;;;;;;;0.00;0.00;;;;;;;;;;5026047;28;20069;-85
2022/05/26 07:52:01;;;;;;;7.13;0.10;;;;;;;;;;5028500;28;20043;-84
2022/05/26 07:54:27;;;;;;;0.10;0.10;;;;;;;;;;5028632;28;20021;-85
2022/05/26 07:56:53;;;;;;;0.00;0.00;;;;;;;;;;5028693;28;20061;-84
2022/05/26 07:59:19;;;;;;;2.15;0.82;;;;;;;;;;5024066;28;20064;-85
2022/05/26 08:01:45;;;;;;;0.00;0.00;;;;;;;;;;5040303;28;20045;-84
2022/05/26 08:04:11;;;;;;;0.00;0.00;;;;;;;;;;5027950;28;20087;-84
2022/05/26 08:06:37;;;;;;;0.43;0.43;;;;;;;;;;5028460;28;20123;-85
2022/05/26 08:09:04;;;;;;;0.00;0.00;;;;;;;;;;5028872;28;20486;-85
2022/05/26 08:11:30;;;;;;;0.10;0.10;;;;;;;;;;5028680;28;20064;-85
2022/05/26 08:13:56;;;;;;;0.13;0.13;;;;;;;;;;5024575;28;20029;-84
2022/05/26 08:16:22;;;;;;;0.20;0.15;;;;;;;;;;5025082;28;20191;-85
2022/05/26 08:18:48;;;;;;;0.08;0.08;;;;;;;;;;5028818;28;20033;-84
2022/05/26 08:21:17;;;;;;;0.10;0.10;;;;;;;;;;5028626;28;20521;-84
2022/05/26 08:23:43;;;;;;;0.40;0.15;;;;;;;;;;5039792;28;20033;-85
2022/05/26 08:26:09;;;;;;;1.98;0.85;;;;;;;;;;5058724;28;20119;-85
2022/05/26 08:28:35;;;;;;;5.72;1.13;;;;;;;;;;5023408;28;20053;-85
2022/05/26 08:31:02;;;;;;;1.55;0.40;;;;;;;;;;5022544;28;20049;-84
2022/05/26 08:33:28;;;;;;;0.10;0.10;;;;;;;;;;5043132;28;20502;-84
2022/05/26 08:35:54;;;;;;;;;;;;;;;;;;5062331;28;20118;-84
2022/05/26 08:38:20;;;;;;;0.10;0.10;;;;;;;;;;5039190;28;19912;-85
2022/05/26 08:40:51;;;;;;;1.20;0.25;;;;;;;;;;5023397;28;20043;-84
2022/05/26 08:43:19;;;;;;;1.70;0.75;;;;;;;;;;5037341;28;20048;-84
2022/05/26 08:45:48;;;;;;;0.10;0.10;;;;;;;;;;5043165;28;20116;-85
2022/05/26 08:48:16;;;;;;;0.00;0.00;;;;;;;;;;5028051;28;20029;-84
2022/05/26 08:50:42;;;;;;;0.00;0.00;;;;;;;;;;5028131;28;20119;-84
2022/05/26 08:53:10;;;;;;;0.43;0.43;;;;;;;;;;5026752;28;20040;-84
2022/05/26 08:55:40;;;;;;;0.38;0.20;;;;;;;;;;5022878;28;20648;-85
2022/05/26 08:58:15;;;;;;;0.70;0.30;;;;;;;;;;5038517;28;20036;-84
2022/05/26 09:00:42;;;;;;;0.00;0.00;;;;;;;;;;5036088;28;20033;-84
2022/05/26 09:03:20;;;;;;;0.35;0.30;;;;;;;;;;5032230;28;20029;-84
2022/05/26 09:05:49;;;;;;;0.00;0.00;;;;;;;;;;5027595;28;20029;-84
2022/05/26 09:14:00;;;;;;;0.00;0.00;;;;;;;;;;5025387;28;20520;-85
2022/05/26 09:16:27;;;;;;;0.00;0.00;;;;;;;;;;5037108;28;20027;-84
2022/05/26 09:19:10;;;;;;;1.08;0.38;;;;;;;;;;5027130;28;20041;-84
2022/05/26 09:21:37;;;;;;;0.20;0.20;;;;;;;;;;5042497;28;20048;-84
2022/05/26 09:24:03;;;;;;;;;;;;;;;;;;5028719;28;20022;-84
2022/05/26 09:26:29;;;;;;;0.00;0.00;;;;;;;;;;5044068;28;19935;-84
2022/05/26 09:29:07;;;;;;;0.00;0.00;;;;;;;;;;5042055;28;20045;-84
2022/05/26 09:31:34;;;;;;;0.00;0.00;;;;;;;;;;5041196;28;20033;-84
2022/05/26 09:34:00;;;;;;;0.00;0.00;;;;;;;;;;5042306;28;20082;-84
2022/05/26 09:36:28;;;;;;;0.00;0.00;;;;;;;;;;5037484;28;20049;-85
2022/05/26 09:38:54;;;;;;;0.45;0.30;;;;;;;;;;5039154;28;20618;-85
2022/05/26 09:41:20;;;;;;;0.00;0.00;;;;;;;;;;5042589;28;20702;-85
2022/05/26 09:43:52;;;;;;;0.00;0.00;;;;;;;;;;5026659;28;20061;-84
2022/05/26 09:46:18;;;;;;;0.03;0.03;;;;;;;;;;5041767;28;20033;-84
2022/05/26 09:48:46;;;;;;;0.00;0.00;;;;;;;;;;5036854;28;20044;-84
2022/05/26 09:51:23;;;;;;;0.00;0.00;;;;;;;;;;5035369;28;20659;-84
2022/05/26 09:53:53;;;;;;;0.00;0.00;;;;;;;;;;5029490;28;20518;-85
2022/05/26 09:56:34;;;;;;;0.00;0.00;;;;;;;;;;5033408;28;20037;-84
2022/05/26 09:59:20;;;;;;;0.40;0.40;;;;;;;;;;5028158;28;20036;-84
2022/05/26 10:01:46;;;;;;;0.00;0.00;;;;;;;;;;5027078;28;20041;-84
2022/05/26 10:04:23;;;;;;;0.00;0.00;;;;;;;;;;5030874;28;20026;-84
2022/05/26 10:06:55;;;;;;;0.00;0.00;;;;;;;;;;5052288;28;20041;-84
2022/05/26 10:09:27;;;;;;;0.03;0.03;;;;;;;;;;5031268;28;20064;-84
2022/05/26 10:12:07;;;;;;;0.00;0.00;;;;;;;;;;5045989;28;20529;-84
2022/05/26 10:14:36;;;;;;;0.13;0.13;;;;;;;;;;5062560;28;20163;-83
2022/05/26 10:17:09;;;;;;;0.10;0.10;;;;;;;;;;5028386;28;20041;-83
2022/05/26 10:19:35;;;;;;;0.00;0.00;;;;;;;;;;5028111;28;20029;-84
2022/05/26 10:22:08;;;;;;;1.85;0.30;;;;;;;;;;5030073;28;20080;-84
2022/05/26 10:25:12;;;;;;;0.55;0.17;;;;;;;;;;5030865;28;20136;-84
2022/05/26 10:27:50;;;;;;;0.13;0.10;;;;;;;;;;5037609;28;20029;-84
2022/05/26 10:30:16;;;;;;;0.00;0.00;;;;;;;;;;5024407;28;20069;-84
2022/05/26 10:33:00;;;;;;;0.03;0.03;;;;;;;;;;5038895;28;20077;-84
2022/05/26 10:35:29;;;;;;;0.20;0.20;;;;;;;;;;5019073;28;20564;-84
2022/05/26 10:38:04;;;;;;;0.10;0.10;;;;;;;;;;5011919;28;20446;-84
2022/05/26 10:40:36;;;;;;;0.00;0.00;;;;;;;;;;5024067;28;20041;-84
2022/05/26 10:43:08;;;;;;;0.00;0.00;;;;;;;;;;5023788;28;20037;-84
2022/05/26 10:45:42;;;;;;;0.00;0.00;;;;;;;;;;5024186;28;20059;-84
2022/05/26 10:48:11;;;;;;;0.30;0.30;;;;;;;;;;5038515;28;20076;-84
2022/05/26 10:50:49;;;;;;;0.10;0.10;;;;;;;;;;5038104;28;20033;-83
2022/05/26 10:53:25;;;;;;;0.10;0.03;;;;;;;;;;5024551;28;20575;-85
2022/05/26 10:56:01;;;;;;;0.00;0.00;;;;;;;;;;5038137;28;20107;-84
2022/05/26 10:58:32;;;;;;;0.00;0.00;;;;;;;;;;5022821;28;20537;-83
2022/05/26 11:01:28;;;;;;;0.40;0.10;;;;;;;;;;5029135;28;20041;-84
2022/05/26 11:03:55;;;;;;;0.00;0.00;;;;;;;;;;5034039;28;20040;-84
2022/05/26 11:06:26;;;;;;;0.00;0.00;;;;;;;;;;5032923;28;20046;-84
2022/05/26 11:09:02;;;;;;;0.00;0.00;;;;;;;;;;5044950;28;20899;-84
2022/05/26 11:11:39;;;;;;;2.63;0.17;;;;;;;;;;5062020;28;20033;-84
2022/05/26 11:14:10;;;;;;;0.25;0.03;;;;;;;;;;5025276;28;20548;-83
2022/05/26 11:19:41;;;;;;;0.10;0.10;;;;;;;;;;5041536;28;20059;-83
2022/05/26 11:22:09;;;;;;;0.17;0.17;;;;;;;;;;5037658;28;20052;-84
2022/05/26 11:24:35;;;;;;;0.25;0.15;;;;;;;;;;5032011;28;20410;-84
2022/05/26 11:27:07;;;;;;;0.00;0.00;;;;;;;;;;5044960;28;20040;-84
2022/05/26 11:29:36;;;;;;;0.68;0.57;;;;;;;;;;5061390;28;20608;-84
2022/05/26 11:38:09;;;;;;;1.42;0.05;;;;;;;;;;5037248;28;20043;-84
2022/05/26 11:40:42;;;;;;;0.28;0.20;;;;;;;;;;5041424;28;20025;-84
2022/05/26 11:43:08;;;;;;;0.05;0.05;;;;;;;;;;5037785;28;20521;-84
2022/05/26 11:45:37;;;;;;;4.97;1.13;;;;;;;;;;5029779;28;20026;-84
2022/05/26 11:48:26;;;;;;;0.00;0.00;;;;;;;;;;5044246;28;20565;-84
2022/05/26 11:50:55;;;;;;;0.10;0.10;;;;;;;;;;5060880;28;20041;-84
2022/05/26 11:53:31;;;;;;;0.00;0.00;;;;;;;;;;5040897;28;20030;-84
2022/05/26 11:56:17;;;;;;;0.10;0.10;;;;;;;;;;5026001;28;20540;-83
2022/05/26 11:58:44;;;;;;;0.10;0.00;;;;;;;;;;5024309;28;20073;-84
2022/05/26 12:01:21;;;;;;;0.00;0.00;;;;;;;;;;5037590;28;20040;-84
2022/05/26 12:04:08;;;;;;;0.45;0.43;;;;;;;;;;5029098;28;20034;-84
2022/05/26 12:06:34;;;;;;;1.23;0.28;;;;;;;;;;5035837;28;20194;-84
2022/05/26 12:09:13;;;;;;;8.52;1.38;;;;;;;;;;5037298;28;20041;-84
2022/05/26 12:11:54;;;;;;;2.20;0.10;;;;;;;;;;5023270;28;20041;-84
2022/05/26 12:14:22;;;;;;;0.00;0.00;;;;;;;;;;5022858;28;20050;-84
2022/05/26 12:16:48;;;;;;;0.10;0.10;;;;;;;;;;5021856;28;20057;-84
2022/05/26 12:19:34;;;;;;;0.00;0.00;;;;;;;;;;5023876;28;20501;-83
2022/05/26 12:22:13;;;;;;;0.00;0.00;;;;;;;;;;5038265;28;20041;-84
2022/05/26 12:24:39;;;;;;;0.38;0.28;;;;;;;;;;5037231;28;20660;-84
2022/05/26 12:27:05;;;;;;;0.20;0.20;;;;;;;;;;5036895;28;20125;-84
2022/05/26 12:29:59;;;;;;;0.00;0.00;;;;;;;;;;5022853;28;20851;-84
2022/05/26 12:32:37;;;;;;;7.13;1.35;;;;;;;;;;5036094;28;20480;-84
2022/05/26 12:35:03;;;;;;;0.00;0.00;;;;;;;;;;5036725;28;20138;-84
2022/05/26 12:38:01;;;;;;;0.25;0.25;;;;;;;;;;5022370;28;20029;-84
2022/05/26 12:40:46;;;;;;;0.00;0.00;;;;;;;;;;5015425;28;20625;-83
2022/05/26 12:43:18;;;;;;;0.00;0.00;;;;;;;;;;4991806;28;20061;-84
2022/05/26 12:45:47;;;;;;;0.00;0.00;;;;;;;;;;4968180;28;20034;-83
2022/05/26 12:48:19;;;;;;;0.00;0.00;;;;;;;;;;4998383;28;20281;-83
2022/05/26 12:50:45;;;;;;;0.13;0.13;;;;;;;;;;4985791;28;20068;-84
2022/05/26 12:53:32;;;;;;;0.10;0.10;;;;;;;;;;4986011;28;20113;-84
2022/05/26 12:56:05;;;;;;;0.00;0.00;;;;;;;;;;4968737;28;20080;-84
2022/05/26 12:58:31;;;;;;;0.00;0.00;;;;;;;;;;4984818;28;20094;-84
2022/05/26 13:00:57;;;;;;;0.00;0.00;;;;;;;;;;5004576;28;20076;-83
2022/05/26 13:03:23;;;;;;;0.00;0.00;;;;;;;;;;4981681;28;20937;-84
2022/05/26 13:05:53;;;;;;;0.13;0.13;;;;;;;;;;4989471;28;20030;-84
2022/05/26 13:08:20;;;;;;;0.40;0.40;;;;;;;;;;5006662;28;20460;-84
2022/05/26 13:10:47;;;;;;;0.10;0.10;;;;;;;;;;5005779;28;20311;-84
2022/05/26 13:13:13;;;;;;;;;;;;;;;;;;5004787;28;20038;-83
2022/05/26 13:15:39;;;;;;;;;;;;;;;;;;5013767;28;20449;-84
2022/05/26 13:18:05;;;;;;;;;;;;;;;;;;5032650;28;19913;-84
2022/05/26 13:20:31;;;;;;;;;;;;;;;;;;5030973;28;19913;-84
2022/05/26 13:22:57;;;;;;;;;;;;;;;;;;5043848;28;20678;-84
2022/05/26 13:25:23;;;;;;;;;;;;;;;;;;5041311;28;19927;-84
2022/05/26 13:27:49;;;;;;;;;;;;;;;;;;5038584;28;20488;-84
2022/05/26 13:33:11;;;;;;;;;;;;;;;;;;5035786;28;20428;-84
2022/05/26 13:35:37;;;;;;;;;;;;;;;;;;5023353;28;20007;-83
2022/05/26 13:38:03;;;;;;;;;;;;;;;;;;5040264;28;20012;-84
2022/05/26 13:40:29;;;;;;;;;;;;;;;;;;5042699;28;19952;-84
2022/05/26 13:42:55;;;;;;;;;;;;;;;;;;5041252;28;20378;-84
2022/05/26 13:45:21;;;;;;;;;;;;;;;;;;5039262;28;19912;-84
2022/05/26 13:47:47;;;;;;;;;;;;;;;;;;5040315;28;20028;-84
2022/05/26 13:50:13;;;;;;;;;;;;;;;;;;5040363;28;19940;-84
2022/05/26 13:52:39;;;;;;;;;;;;;;;;;;5040654;28;19938;-85
2022/05/26 13:55:05;;;;;;;;;;;;;;;;;;5042106;28;19908;-83
2022/05/26 13:57:31;;;;;;;;;;;;;;;;;;5013323;28;19995;-84
2022/05/26 13:59:56;;;;;;;;;;;;;;;;;;5032494;28;20451;-84
2022/05/26 14:02:22;;;;;;;;;;;;;;;;;;5028635;28;19920;-83
2022/05/26 14:04:48;;;;;;;;;;;;;;;;;;5022825;28;19913;-83
2022/05/26 14:07:14;;;;;;;;;;;;;;;;;;5042631;28;20445;-83
2022/05/26 14:09:41;;;;;;;;;;;;;;;;;;5030671;28;20484;-84
2022/05/26 14:12:07;;;;;;;;;;;;;;;;;;5046113;28;20471;-84
2022/05/26 14:14:33;;;;;;;;;;;;;;;;;;5031200;28;20389;-84
2022/05/26 14:16:59;;;;;;;;;;;;;;;;;;5043097;28;20321;-83
2022/05/26 14:19:24;;;;;;;;;;;;;;;;;;5029124;28;20432;-83
2022/05/26 14:21:50;;;;;;;;;;;;;;;;;;5030289;28;19972;-84
2022/05/26 14:24:16;;;;;;;;;;;;;;;;;;5031258;28;19966;-84
2022/05/26 14:26:44;;;;;;;;;;;;;;;;;;5045586;28;20406;-84
2022/05/26 14:29:10;;;;;;;;;;;;;;;;;;5029316;28;19924;-83
2022/05/26 14:31:36;;;;;;;;;;;;;;;;;;5026447;28;19931;-84
2022/05/26 14:34:02;;;;;;;;;;;;;;;;;;5038116;28;19912;-84
2022/05/26 14:36:28;;;;;;;;;;;;;;;;;;5038329;28;19919;-84
2022/05/26 14:38:54;;;;;;;;;;;;;;;;;;5039053;28;20815;-84
2022/05/26 14:41:20;;;;;;;;;;;;;;;;;;5041936;28;19920;-83
2022/05/26 14:43:46;;;;;;;;;;;;;;;;;;5043022;28;19924;-84
2022/05/26 14:46:12;;;;;;;;;;;;;;;;;;5040044;28;20514;-84
2022/05/26 14:48:38;;;;;;;;;;;;;;;;;;5031467;28;19919;-85
2022/05/26 14:51:04;;;;;;;;;;;;;;;;;;5030435;28;19921;-84
2022/05/26 14:56:16;;;;;;;;;;;;;;;;;;5029944;28;19920;-84
2022/05/26 14:58:42;;;;;;;;;;;;;;;;;;5025511;28;19917;-84
2022/05/26 15:01:08;;;;;;;;;;;;;;;;;;5033840;28;20374;-84
2022/05/26 15:03:34;;;;;;;;;;;;;;;;;;5033024;28;19956;-84
2022/05/26 15:06:00;;;;;;;;;;;;;;;;;;5030330;28;19913;-84
2022/05/26 15:08:26;;;;;;;;;;;;;;;;;;5030334;28;20298;-83
2022/05/26 15:10:52;;;;;;;;;;;;;;;;;;5041878;28;19960;-84
2022/05/26 15:13:18;;;;;;;;;;;;;;;;;;5023440;28;19909;-84
2022/05/26 15:15:44;;;;;;;;;;;;;;;;;;5038631;28;19919;-84
2022/05/26 15:18:10;;;;;;;;;;;;;;;;;;5034744;28;19912;-83
2022/05/26 15:20:35;;;;;;;;;;;;;;;;;;5028830;28;19940;-83
2022/05/26 15:23:01;;;;;;;;;;;;;;;;;;5039053;28;19975;-84
2022/05/26 15:25:27;;;;;;;;;;;;;;;;;;5024279;28;19960;-84
2022/05/26 15:27:57;;;;;;;;;;;;;;;;;;5036646;28;20346;-84
2022/05/26 15:30:23;;;;;;;;;;;;;;;;;;5032683;28;19917;-84
2022/05/26 15:32:49;;;;;;;;;;;;;;;;;;5029834;28;19913;-83
2022/05/26 15:35:15;;;;;;;;;;;;;;;;;;5028824;28;19962;-84
2022/05/26 15:37:41;;;;;;;;;;;;;;;;;;5036219;28;19913;-84
2022/05/26 15:40:07;;;;;;;;;;;;;;;;;;5040611;28;19908;-84
2022/05/26 15:42:33;;;;;;;;;;;;;;;;;;5036639;28;19920;-84
2022/05/26 15:44:59;;;;;;;;;;;;;;;;;;5036868;28;19913;-84
2022/05/26 15:47:25;;;;;;;;;;;;;;;;;;5038137;28;20839;-84
2022/05/26 15:49:51;;;;;;;;;;;;;;;;;;5039274;28;19913;-84
2022/05/26 15:52:17;;;;;;;;;;;;;;;;;;5027098;28;19909;-84
2022/05/26 15:54:45;;;;;;;;;;;;;;;;;;5044558;28;19913;-84
2022/05/26 15:57:10;;;;;;;;;;;;;;;;;;5037498;28;19964;-84
2022/05/26 15:59:36;;;;;;;;;;;;;;;;;;5038569;28;19944;-84
2022/05/26 16:02:02;;;;;;;;;;;;;;;;;;5041166;28;20456;-82
2022/05/26 16:04:28;;;;;;;;;;;;;;;;;;5024193;28;20643;-84
2022/05/26 16:06:54;;;;;;;;;;;;;;;;;;5038900;28;19917;-84